createdAt,value
2023-05-21T00:00:17.613Z,81.25
2023-05-21T00:02:44.298Z,78.91
2023-05-21T00:05:13.683Z,77.75
2023-05-21T00:07:41.242Z,78.59
2023-05-21T00:10:07.862Z,77.40
2023-05-21T00:12:34.440Z,76.73
2023-05-21T00:15:01.044Z,75.86
2023-05-21T00:17:27.676Z,74.55
2023-05-21T00:19:54.311Z,77.00
2023-05-21T00:22:20.888Z,76.75
2023-05-21T00:24:47.462Z,79.60
2023-05-21T00:27:13.989Z,75.53
2023-05-21T00:29:41.348Z,75.91
2023-05-21T00:32:09.514Z,77.13
2023-05-21T00:34:36.140Z,77.32
2023-05-21T00:37:02.698Z,73.44
2023-05-21T00:39:29.239Z,75.35
2023-05-21T00:41:55.764Z,77.14
2023-05-21T00:44:22.359Z,77.41
2023-05-21T00:46:48.975Z,74.21
2023-05-21T00:49:15.529Z,75.31
2023-05-21T00:51:42.110Z,73.52
2023-05-21T00:54:08.633Z,75.65
2023-05-21T00:56:35.206Z,75.60
2023-05-21T00:59:01.833Z,72.39
2023-05-21T01:01:28.400Z,74.00
2023-05-21T01:03:55.026Z,72.02
2023-05-21T01:06:21.580Z,70.52
2023-05-21T01:08:48.096Z,73.19
2023-05-21T01:11:14.603Z,73.82
2023-05-21T01:13:41.055Z,71.95
2023-05-21T01:16:07.568Z,70.51
2023-05-21T01:18:34.042Z,73.07
2023-05-21T01:21:00.479Z,73.24
2023-05-21T01:23:26.993Z,76.05
2023-05-21T01:25:53.533Z,71.36
2023-05-21T01:28:20.089Z,72.09
2023-05-21T01:30:46.615Z,69.62
2023-05-21T01:33:13.516Z,72.76
2023-05-21T01:35:40.541Z,71.38
2023-05-21T01:38:07.093Z,69.98
2023-05-21T01:40:33.659Z,69.56
2023-05-21T01:43:00.276Z,72.50
2023-05-21T01:45:26.792Z,71.72
2023-05-21T01:47:53.317Z,68.30
2023-05-21T01:50:19.846Z,70.29
2023-05-21T01:52:46.311Z,71.60
2023-05-21T01:55:12.865Z,70.73
2023-05-21T01:57:39.379Z,71.35
2023-05-21T02:00:05.973Z,71.52
2023-05-21T02:02:32.559Z,67.76
2023-05-21T02:04:59.112Z,69.08
2023-05-21T02:07:25.624Z,69.10
2023-05-21T02:09:52.132Z,68.32
2023-05-21T02:12:18.681Z,67.66
2023-05-21T02:14:45.199Z,68.50
2023-05-21T02:17:11.730Z,69.41
2023-05-21T02:19:38.238Z,63.02
2023-05-21T02:22:04.819Z,65.97
2023-05-21T02:24:31.411Z,67.93
2023-05-21T02:26:57.998Z,69.18
2023-05-21T02:29:24.572Z,67.98
2023-05-21T02:31:51.099Z,66.46
2023-05-21T02:34:17.972Z,65.53
2023-05-21T02:36:44.597Z,66.60
2023-05-21T02:39:11.144Z,66.63
2023-05-21T02:41:37.708Z,66.59
2023-05-21T02:44:04.311Z,65.35
2023-05-21T02:46:30.960Z,65.05
2023-05-21T02:48:57.568Z,67.94
2023-05-21T02:51:24.140Z,64.76
2023-05-21T02:53:50.717Z,63.34
2023-05-21T02:56:20.393Z,67.29
2023-05-21T02:58:47.007Z,65.98
2023-05-21T03:01:13.575Z,66.52
2023-05-21T03:03:40.199Z,63.86
2023-05-21T03:06:06.709Z,64.52
2023-05-21T03:08:33.197Z,65.55
2023-05-21T03:10:59.706Z,61.67
2023-05-21T03:13:26.288Z,64.35
2023-05-21T03:15:52.835Z,61.48
2023-05-21T03:18:19.363Z,63.88
2023-05-21T03:20:45.942Z,65.27
2023-05-21T03:23:14.223Z,62.90
2023-05-21T03:25:42.833Z,63.09
2023-05-21T03:28:09.397Z,63.96
2023-05-21T03:30:36.007Z,63.44
2023-05-21T03:33:02.617Z,62.53
2023-05-21T03:35:29.214Z,63.70
2023-05-21T03:37:55.741Z,62.42
2023-05-21T03:40:22.198Z,61.75
2023-05-21T03:42:48.689Z,61.88
2023-05-21T03:45:15.212Z,62.67
2023-05-21T03:47:41.858Z,62.85
2023-05-21T03:50:08.607Z,61.58
2023-05-21T03:52:35.159Z,61.40
2023-05-21T03:55:01.725Z,58.93
2023-05-21T03:57:28.247Z,61.44
2023-05-21T03:59:54.762Z,61.19
2023-05-21T04:02:21.407Z,60.45
2023-05-21T04:04:48.182Z,61.54
2023-05-21T04:07:14.888Z,58.24
2023-05-21T04:09:41.480Z,60.52
2023-05-21T04:12:08.021Z,60.91
2023-05-21T04:14:34.561Z,61.97
2023-05-21T04:17:01.115Z,61.14
2023-05-21T04:19:27.820Z,60.05
2023-05-21T04:21:54.392Z,57.48
2023-05-21T04:24:20.822Z,58.59
2023-05-21T04:26:47.324Z,60.28
2023-05-21T04:29:13.886Z,60.65
2023-05-21T04:31:40.440Z,60.90
2023-05-21T04:34:07.064Z,59.72
2023-05-21T04:36:33.651Z,58.75
2023-05-21T04:39:00.170Z,57.92
2023-05-21T04:41:26.693Z,60.75
2023-05-21T04:43:56.072Z,58.30
2023-05-21T04:46:22.619Z,56.68
2023-05-21T04:48:49.260Z,58.00
2023-05-21T04:51:15.823Z,59.61
2023-05-21T04:53:42.431Z,57.25
2023-05-21T04:56:09.020Z,56.81
2023-05-21T04:58:35.627Z,56.88
2023-05-21T05:01:02.227Z,60.75
2023-05-21T05:03:28.960Z,58.38
2023-05-21T05:05:55.578Z,58.04
2023-05-21T05:08:22.098Z,59.22
2023-05-21T05:10:48.682Z,60.22
2023-05-21T05:13:15.264Z,56.08
2023-05-21T05:15:41.780Z,57.92
2023-05-21T05:18:08.359Z,54.81
2023-05-21T05:20:35.021Z,55.98
2023-05-21T05:23:01.544Z,56.79
2023-05-21T05:25:28.073Z,53.02
2023-05-21T05:27:54.530Z,58.28
2023-05-21T05:30:21.099Z,57.83
2023-05-21T05:32:47.736Z,57.87
2023-05-21T05:35:14.306Z,57.85
2023-05-21T05:37:41.266Z,58.63
2023-05-21T05:40:07.889Z,60.81
2023-05-21T05:42:34.438Z,60.86
2023-05-21T05:45:00.957Z,57.65
2023-05-21T05:47:27.529Z,59.41
2023-05-21T05:49:54.065Z,58.35
2023-05-21T05:52:20.655Z,55.99
2023-05-21T05:54:47.304Z,58.64
2023-05-21T05:57:14.007Z,56.39
2023-05-21T05:59:40.555Z,57.60
2023-05-21T06:02:07.149Z,56.71
2023-05-21T06:04:33.730Z,58.83
2023-05-21T06:07:00.198Z,59.75
2023-05-21T06:09:26.653Z,57.48
2023-05-21T06:11:53.124Z,59.56
2023-05-21T06:14:19.581Z,58.07
2023-05-21T06:16:46.145Z,53.74
2023-05-21T06:19:12.820Z,54.79
2023-05-21T06:21:39.355Z,56.76
2023-05-21T06:24:05.923Z,55.16
2023-05-21T06:26:32.508Z,58.13
2023-05-21T06:28:59.129Z,58.36
2023-05-21T06:31:25.653Z,55.86
2023-05-21T06:33:52.344Z,55.88
2023-05-21T06:36:18.953Z,56.43
2023-05-21T06:38:45.447Z,53.81
2023-05-21T06:41:12.038Z,55.44
2023-05-21T06:43:38.723Z,53.56
2023-05-21T06:46:05.290Z,53.80
2023-05-21T06:48:31.858Z,54.93
2023-05-21T06:50:58.351Z,55.11
2023-05-21T06:53:24.851Z,53.24
2023-05-21T06:55:51.444Z,55.27
2023-05-21T06:58:18.040Z,54.46
2023-05-21T07:00:44.539Z,53.50
2023-05-21T07:03:11.183Z,55.42
2023-05-21T07:05:38.048Z,55.21
2023-05-21T07:08:04.969Z,53.51
2023-05-21T07:10:31.574Z,51.83
2023-05-21T07:12:58.079Z,53.82
2023-05-21T07:15:24.595Z,54.33
2023-05-21T07:17:51.276Z,52.86
2023-05-21T07:20:17.884Z,54.23
2023-05-21T07:22:44.495Z,52.46
2023-05-21T07:25:11.077Z,56.69
2023-05-21T07:27:37.722Z,52.59
2023-05-21T07:30:04.251Z,53.53
2023-05-21T07:32:30.774Z,53.04
2023-05-21T07:34:57.375Z,54.79
2023-05-21T07:37:23.909Z,53.62
2023-05-21T07:39:50.533Z,52.33
2023-05-21T07:42:17.145Z,54.34
2023-05-21T07:44:43.611Z,56.41
2023-05-21T07:47:10.122Z,56.48
2023-05-21T07:49:36.667Z,53.65
2023-05-21T07:52:03.401Z,54.48
2023-05-21T07:54:29.932Z,54.68
2023-05-21T07:56:56.567Z,54.33
2023-05-21T07:59:23.094Z,54.07
2023-05-21T08:01:49.710Z,56.08
2023-05-21T08:04:16.470Z,55.53
2023-05-21T08:06:43.076Z,54.35
2023-05-21T08:09:09.703Z,54.00
2023-05-21T08:11:36.178Z,54.56
2023-05-21T08:14:02.778Z,55.38
2023-05-21T08:16:29.338Z,52.78
2023-05-21T08:18:56.024Z,54.03
2023-05-21T08:21:22.693Z,55.33
2023-05-21T08:23:49.273Z,57.04
2023-05-21T08:26:15.832Z,53.47
2023-05-21T08:28:42.416Z,54.47
2023-05-21T08:31:09.009Z,53.43
2023-05-21T08:33:35.611Z,52.46
2023-05-21T08:36:02.181Z,52.44
2023-05-21T08:38:30.251Z,55.35
2023-05-21T08:40:57.100Z,53.79
2023-05-21T08:43:23.618Z,54.37
2023-05-21T08:45:50.180Z,52.54
2023-05-21T08:48:16.732Z,54.31
2023-05-21T08:50:43.188Z,53.60
2023-05-21T08:53:15.818Z,52.37
2023-05-21T08:55:51.665Z,53.21
2023-05-21T08:58:18.280Z,53.53
2023-05-21T09:00:44.856Z,50.80
2023-05-21T09:03:11.580Z,51.41
2023-05-21T09:05:38.352Z,53.48
2023-05-21T09:08:05.047Z,53.89
2023-05-21T09:10:31.561Z,52.66
2023-05-21T09:12:58.080Z,52.09
2023-05-21T09:15:24.554Z,50.07
2023-05-21T09:17:51.095Z,51.10
2023-05-21T09:20:17.595Z,51.58
2023-05-21T09:22:44.146Z,48.39
2023-05-21T09:25:10.673Z,50.67
2023-05-21T09:27:37.161Z,52.83
2023-05-21T09:30:03.738Z,51.33
2023-05-21T09:32:30.241Z,49.43
2023-05-21T09:34:56.816Z,51.24
2023-05-21T09:37:27.445Z,50.61
2023-05-21T09:39:54.359Z,51.31
2023-05-21T09:42:20.936Z,51.28
2023-05-21T09:44:47.405Z,48.76
2023-05-21T09:47:13.944Z,49.26
2023-05-21T09:49:40.484Z,48.80
2023-05-21T09:52:06.954Z,50.81
2023-05-21T09:54:33.443Z,51.70
2023-05-21T09:56:59.892Z,50.04
2023-05-21T09:59:26.416Z,49.92
2023-05-21T10:01:53.109Z,49.35
2023-05-21T10:04:19.906Z,49.81
2023-05-21T10:06:47.612Z,49.24
2023-05-21T10:09:14.088Z,52.86
2023-05-21T10:11:40.592Z,52.12
2023-05-21T10:14:07.144Z,49.76
2023-05-21T10:16:33.721Z,53.40
2023-05-21T10:19:00.400Z,52.07
2023-05-21T10:21:26.962Z,52.82
2023-05-21T10:23:53.499Z,52.89
2023-05-21T10:26:20.089Z,55.26
2023-05-21T10:28:46.657Z,56.39
2023-05-21T10:31:13.155Z,55.27
2023-05-21T10:33:39.738Z,55.50
2023-05-21T10:36:06.301Z,54.80
2023-05-21T10:38:32.927Z,56.97
2023-05-21T10:40:59.480Z,56.76
2023-05-21T10:43:26.003Z,55.36
2023-05-21T10:45:52.495Z,56.34
2023-05-21T10:48:21.983Z,66.37
2023-05-21T10:50:48.481Z,69.71
2023-05-21T10:53:14.990Z,76.01
2023-05-21T10:55:41.608Z,82.16
2023-05-21T10:58:08.341Z,76.41
2023-05-21T11:00:34.948Z,77.49
2023-05-21T11:03:01.637Z,73.32
2023-05-21T11:05:28.232Z,72.53
2023-05-21T11:07:54.748Z,71.88
2023-05-21T11:10:21.255Z,72.26
2023-05-21T11:12:47.789Z,70.61
2023-05-21T11:15:14.332Z,69.99
2023-05-21T11:17:40.896Z,67.58
2023-05-21T11:20:07.489Z,68.92
2023-05-21T11:22:33.957Z,66.72
2023-05-21T11:25:00.515Z,67.69
2023-05-21T11:27:27.059Z,64.58
2023-05-21T11:29:53.620Z,64.33
2023-05-21T11:32:20.204Z,64.49
2023-05-21T11:34:49.892Z,63.77
2023-05-21T11:37:16.445Z,63.33
2023-05-21T11:39:42.941Z,65.45
2023-05-21T11:42:09.407Z,64.12
2023-05-21T11:44:35.947Z,61.64
2023-05-21T11:47:02.458Z,63.08
2023-05-21T11:49:28.985Z,60.21
2023-05-21T11:51:55.529Z,62.92
2023-05-21T11:54:22.000Z,60.99
2023-05-21T11:56:48.480Z,59.61
2023-05-21T11:59:16.685Z,61.35
2023-05-21T12:01:45.067Z,60.74
2023-05-21T12:04:11.629Z,60.85
2023-05-21T12:06:38.201Z,58.40
2023-05-21T12:09:04.669Z,57.72
2023-05-21T12:11:31.147Z,58.84
2023-05-21T12:13:57.715Z,57.88
2023-05-21T12:16:24.311Z,57.31
2023-05-21T12:18:50.942Z,58.10
2023-05-21T12:21:17.477Z,57.34
2023-05-21T12:23:44.114Z,61.86
2023-05-21T12:26:10.752Z,56.35
2023-05-21T12:28:37.376Z,56.69
2023-05-21T12:31:03.964Z,56.62
2023-05-21T12:33:30.543Z,56.93
2023-05-21T12:35:57.208Z,55.97
2023-05-21T12:38:23.707Z,53.94
2023-05-21T12:40:50.224Z,55.54
2023-05-21T12:43:16.828Z,53.71
2023-05-21T12:45:43.445Z,54.64
2023-05-21T12:48:10.177Z,54.51
2023-05-21T12:50:37.001Z,56.02
2023-05-21T12:53:03.562Z,53.17
2023-05-21T12:55:30.119Z,53.37
2023-05-21T12:57:56.702Z,54.86
2023-05-21T13:00:23.207Z,54.54
2023-05-21T13:02:49.761Z,53.80
2023-05-21T13:05:16.570Z,54.15
2023-05-21T13:07:43.495Z,54.34
2023-05-21T13:10:10.093Z,51.70
2023-05-21T13:12:36.779Z,52.22
2023-05-21T13:15:03.356Z,53.04
2023-05-21T13:17:29.863Z,52.94
2023-05-21T13:19:56.418Z,53.32
2023-05-21T13:22:22.925Z,51.22
2023-05-21T13:24:49.459Z,50.22
2023-05-21T13:27:16.019Z,47.56
2023-05-21T13:29:42.606Z,49.91
2023-05-21T13:32:09.109Z,51.37
2023-05-21T13:34:35.643Z,46.83
2023-05-21T13:37:02.117Z,48.39
2023-05-21T13:39:28.687Z,48.46
2023-05-21T13:41:55.204Z,48.08
2023-05-21T13:44:21.721Z,52.03
2023-05-21T13:46:48.326Z,48.24
2023-05-21T13:49:14.920Z,49.10
2023-05-21T13:51:41.499Z,49.41
2023-05-21T13:54:08.081Z,50.30
2023-05-21T13:56:34.592Z,51.12
2023-05-21T13:59:01.061Z,51.01
2023-05-21T14:01:27.695Z,51.95
2023-05-21T14:03:54.303Z,51.23
2023-05-21T14:06:23.645Z,47.92
2023-05-21T14:08:50.133Z,51.36
2023-05-21T14:11:16.639Z,49.77
2023-05-21T14:13:43.194Z,47.47
2023-05-21T14:16:09.663Z,46.86
2023-05-21T14:18:36.405Z,48.06
2023-05-21T14:21:02.972Z,49.53
2023-05-21T14:23:29.540Z,48.03
2023-05-21T14:25:56.140Z,48.01
2023-05-21T14:28:22.650Z,47.15
2023-05-21T14:30:49.142Z,47.03
2023-05-21T14:33:15.771Z,47.27
2023-05-21T14:35:42.367Z,46.63
2023-05-21T14:38:08.919Z,46.93
2023-05-21T14:40:35.524Z,47.43
2023-05-21T14:43:02.113Z,45.67
2023-05-21T14:45:28.657Z,44.30
2023-05-21T14:47:55.235Z,47.74
2023-05-21T14:50:21.915Z,47.85
2023-05-21T14:52:48.425Z,46.58
2023-05-21T14:55:14.891Z,46.17
2023-05-21T14:57:41.357Z,45.73
2023-05-21T15:00:07.871Z,45.37
2023-05-21T15:02:34.423Z,47.81
2023-05-21T15:05:01.156Z,45.02
2023-05-21T15:07:27.701Z,44.99
2023-05-21T15:09:54.187Z,44.62
2023-05-21T15:12:20.716Z,45.52
2023-05-21T15:14:47.222Z,45.74
2023-05-21T15:17:13.765Z,45.38
2023-05-21T15:19:42.682Z,45.92
2023-05-21T15:22:09.283Z,46.31
2023-05-21T15:24:35.795Z,44.37
2023-05-21T15:27:02.262Z,45.90
2023-05-21T15:29:28.782Z,45.25
2023-05-21T15:31:55.306Z,43.85
2023-05-21T15:34:21.907Z,46.55
2023-05-21T15:36:48.508Z,46.59
2023-05-21T15:39:15.064Z,46.77
2023-05-21T15:41:41.644Z,73.88
2023-05-21T15:44:08.115Z,136.18
2023-05-21T15:46:34.746Z,136.96
2023-05-21T15:49:01.288Z,144.28
2023-05-21T15:51:27.849Z,143.07
2023-05-21T15:53:55.792Z,128.09
2023-05-21T15:56:22.380Z,128.45
2023-05-21T15:58:48.953Z,127.43
2023-05-21T16:01:15.502Z,124.88
2023-05-21T16:03:42.161Z,120.44
2023-05-21T16:06:08.770Z,113.62
2023-05-21T16:08:35.374Z,109.52
2023-05-21T16:11:01.879Z,110.54
2023-05-21T16:13:28.466Z,107.44
2023-05-21T16:15:55.131Z,109.70
2023-05-21T16:18:21.623Z,104.20
2023-05-21T16:20:48.143Z,105.57
2023-05-21T16:23:14.644Z,104.07
2023-05-21T16:25:41.105Z,104.70
2023-05-21T16:28:07.639Z,101.08
2023-05-21T16:30:34.181Z,98.69
2023-05-21T16:33:00.752Z,93.78
2023-05-21T16:35:27.349Z,93.92
2023-05-21T16:37:53.884Z,90.04
2023-05-21T16:40:20.429Z,90.21
2023-05-21T16:42:46.949Z,89.18
2023-05-21T16:45:13.626Z,88.15
2023-05-21T16:47:40.193Z,91.02
2023-05-21T16:50:09.609Z,88.62
2023-05-21T16:52:36.198Z,89.94
2023-05-21T16:55:02.719Z,86.90
2023-05-21T16:57:29.272Z,86.39
2023-05-21T16:59:55.889Z,88.55
2023-05-21T17:02:22.568Z,88.19
2023-05-21T17:04:49.126Z,87.95
2023-05-21T17:07:15.835Z,91.57
2023-05-21T17:09:42.390Z,90.14
2023-05-21T17:12:08.893Z,86.54
2023-05-21T17:14:36.651Z,83.32
2023-05-21T17:17:04.272Z,85.26
2023-05-21T17:19:30.990Z,81.42
2023-05-21T17:21:57.565Z,84.88
2023-05-21T17:24:24.116Z,83.63
2023-05-21T17:26:50.618Z,84.97
2023-05-21T17:29:17.091Z,82.74
2023-05-21T17:31:43.659Z,79.56
2023-05-21T17:34:10.263Z,84.42
2023-05-21T17:36:36.778Z,80.60
2023-05-21T17:39:03.324Z,83.24
2023-05-21T17:41:29.788Z,82.57
2023-05-21T17:43:56.276Z,79.70
2023-05-21T17:46:22.863Z,79.81
2023-05-21T17:48:49.364Z,80.04
2023-05-21T17:51:15.947Z,78.37
2023-05-21T17:53:42.436Z,79.42
2023-05-21T17:56:08.980Z,77.81
2023-05-21T17:58:35.476Z,78.73
2023-05-21T18:01:02.009Z,78.74
2023-05-21T18:03:28.597Z,80.89
2023-05-21T18:05:55.148Z,77.88
2023-05-21T18:08:23.823Z,76.82
2023-05-21T18:10:50.376Z,76.39
2023-05-21T18:13:16.985Z,76.28
2023-05-21T18:15:43.608Z,74.27
2023-05-21T18:18:10.240Z,74.84
2023-05-21T18:20:37.074Z,73.51
2023-05-21T18:23:03.831Z,74.40
2023-05-21T18:25:30.368Z,73.52
2023-05-21T18:27:56.938Z,72.74
2023-05-21T18:30:23.542Z,72.67
2023-05-21T18:32:50.178Z,73.85
2023-05-21T18:35:16.985Z,71.57
2023-05-21T18:37:43.666Z,72.98
2023-05-21T18:40:10.226Z,70.92
2023-05-21T18:42:37.985Z,70.94
2023-05-21T18:45:04.597Z,69.46
2023-05-21T18:47:31.128Z,66.32
2023-05-21T18:49:57.765Z,69.32
2023-05-21T18:52:24.405Z,69.58
2023-05-21T18:54:50.970Z,68.11
2023-05-21T18:57:17.477Z,70.08
2023-05-21T18:59:44.004Z,68.38
2023-05-21T19:02:10.800Z,69.03
2023-05-21T19:04:37.544Z,70.01
2023-05-21T19:07:04.191Z,70.55
2023-05-21T19:09:30.858Z,68.56
2023-05-21T19:11:57.465Z,69.82
2023-05-21T19:14:24.075Z,67.13
2023-05-21T19:16:50.649Z,67.02
2023-05-21T19:19:17.241Z,66.57
2023-05-21T19:21:43.842Z,66.55
2023-05-21T19:24:10.409Z,64.18
2023-05-21T19:26:37.003Z,64.61
2023-05-21T19:29:03.492Z,65.79
2023-05-21T19:31:30.081Z,64.36
2023-05-21T19:33:56.730Z,61.96
2023-05-21T19:36:23.388Z,62.23
2023-05-21T19:38:50.087Z,61.83
2023-05-21T19:41:16.761Z,64.68
2023-05-21T19:43:43.233Z,59.60
2023-05-21T19:46:09.866Z,63.41
2023-05-21T19:48:36.489Z,65.57
2023-05-21T19:51:02.994Z,62.69
2023-05-21T19:53:29.562Z,62.02
2023-05-21T19:55:56.054Z,62.85
2023-05-21T19:58:22.618Z,64.80
2023-05-21T20:00:49.197Z,61.63
2023-05-21T20:03:15.815Z,62.21
2023-05-21T20:05:42.452Z,62.84
2023-05-21T20:08:08.931Z,60.59
2023-05-21T20:10:35.397Z,62.64
2023-05-21T20:13:02.004Z,60.58
2023-05-21T20:15:28.548Z,64.70
2023-05-21T20:17:55.026Z,61.71
2023-05-21T20:20:21.586Z,60.46
2023-05-21T20:22:48.151Z,62.96
2023-05-21T20:25:14.665Z,60.15
2023-05-21T20:27:41.139Z,60.04
2023-05-21T20:30:07.750Z,58.42
2023-05-21T20:32:34.319Z,60.95
2023-05-21T20:35:03.419Z,63.26
2023-05-21T20:37:30.168Z,59.09
2023-05-21T20:39:56.743Z,61.74
2023-05-21T20:42:23.342Z,58.76
2023-05-21T20:44:49.809Z,60.51
2023-05-21T20:47:16.339Z,60.96
2023-05-21T20:49:42.902Z,60.97
2023-05-21T20:52:09.396Z,61.84
2023-05-21T20:54:35.900Z,60.82
2023-05-21T20:57:02.510Z,59.57
2023-05-21T20:59:29.023Z,61.05
2023-05-21T21:01:55.581Z,57.94
2023-05-21T21:04:22.342Z,58.50
2023-05-21T21:06:48.974Z,59.37
2023-05-21T21:09:15.526Z,59.51
2023-05-21T21:11:42.006Z,58.82
2023-05-21T21:14:08.554Z,58.06
2023-05-21T21:16:35.207Z,58.26
2023-05-21T21:19:01.857Z,57.34
2023-05-21T21:21:28.448Z,56.93
2023-05-21T21:23:54.992Z,55.16
2023-05-21T21:26:21.496Z,58.64
2023-05-21T21:28:47.958Z,59.48
2023-05-21T21:31:14.542Z,54.24
2023-05-21T21:33:41.106Z,56.18
2023-05-21T21:36:07.727Z,57.43
2023-05-21T21:38:34.294Z,56.66
2023-05-21T21:41:00.944Z,55.74
2023-05-21T21:43:27.547Z,56.73
2023-05-21T21:45:54.154Z,58.57
2023-05-21T21:48:20.779Z,56.65
2023-05-21T21:50:47.284Z,57.03
2023-05-21T21:53:13.828Z,56.28
2023-05-21T21:55:40.357Z,56.58
2023-05-21T21:58:07.025Z,54.70
2023-05-21T22:00:33.676Z,53.54
2023-05-21T22:03:00.399Z,54.53
2023-05-21T22:05:27.052Z,54.07
2023-05-21T22:07:53.650Z,54.68
2023-05-21T22:10:20.231Z,54.03
2023-05-21T22:12:46.784Z,54.10
2023-05-21T22:15:13.412Z,54.95
2023-05-21T22:17:40.093Z,54.77
2023-05-21T22:20:06.687Z,53.63
2023-05-21T22:22:33.348Z,52.00
2023-05-21T22:24:59.900Z,53.48
2023-05-21T22:27:26.497Z,54.99
2023-05-21T22:29:53.075Z,54.22
2023-05-21T22:32:19.726Z,53.31
2023-05-21T22:34:46.327Z,56.24
2023-05-21T22:37:12.920Z,51.51
2023-05-21T22:39:39.530Z,54.62
2023-05-21T22:42:06.089Z,53.67
2023-05-21T22:44:32.680Z,53.68
2023-05-21T22:46:59.320Z,53.05
2023-05-21T22:49:25.927Z,54.49
2023-05-21T22:51:52.526Z,49.95
2023-05-21T22:54:19.053Z,52.68
2023-05-21T22:56:45.660Z,53.27
2023-05-21T22:59:12.186Z,53.11
2023-05-21T23:01:38.783Z,52.60
2023-05-21T23:04:05.284Z,51.61
2023-05-21T23:06:31.862Z,50.32
2023-05-21T23:08:58.445Z,50.32
2023-05-21T23:11:25.084Z,51.55
2023-05-21T23:13:51.627Z,51.27
2023-05-21T23:16:18.276Z,50.45
2023-05-21T23:18:44.871Z,51.33
2023-05-21T23:21:11.466Z,49.93
2023-05-21T23:23:37.997Z,50.93
2023-05-21T23:26:04.464Z,54.54
2023-05-21T23:28:30.993Z,49.42
2023-05-21T23:30:57.643Z,49.65
2023-05-21T23:33:24.225Z,48.68
2023-05-21T23:35:50.798Z,51.62
2023-05-21T23:38:17.320Z,52.13
2023-05-21T23:40:43.877Z,48.23
2023-05-21T23:43:10.441Z,48.22
2023-05-21T23:45:37.112Z,49.82
2023-05-21T23:48:03.840Z,47.43
2023-05-21T23:50:30.450Z,48.53
2023-05-21T23:52:57.032Z,50.72
2023-05-21T23:55:23.614Z,49.40
2023-05-21T23:57:50.189Z,46.68
